createdAt,value
2018-03-04T00:00:13.819Z,4.50
2018-03-04T00:02:41.275Z,4.50
2018-03-04T00:05:08.738Z,4.50
2018-03-04T00:07:36.202Z,4.40
2018-03-04T00:10:03.656Z,4.40
2018-03-04T00:12:31.108Z,4.40
2018-03-04T00:14:58.582Z,4.40
2018-03-04T00:17:27.339Z,4.40
2018-03-04T00:19:54.782Z,4.40
2018-03-04T00:22:33.987Z,4.40
2018-03-04T00:25:01.438Z,4.40
2018-03-04T00:27:28.905Z,4.40
2018-03-04T00:29:56.357Z,4.40
2018-03-04T00:32:23.818Z,4.40
2018-03-04T00:34:51.265Z,4.40
2018-03-04T00:37:18.720Z,4.40
2018-03-04T00:39:46.175Z,4.40
2018-03-04T00:42:13.636Z,4.40
2018-03-04T00:44:41.089Z,4.40
2018-03-04T00:47:08.550Z,4.40
2018-03-04T00:49:36.006Z,4.40
2018-03-04T00:52:03.457Z,4.40
2018-03-04T00:54:30.909Z,4.40
2018-03-04T00:56:58.369Z,4.30
2018-03-04T00:59:25.822Z,4.30
2018-03-04T01:01:53.289Z,4.30
2018-03-04T01:04:20.737Z,4.30
2018-03-04T01:06:48.197Z,4.30
2018-03-04T01:09:15.651Z,4.30
2018-03-04T01:11:43.110Z,4.30
2018-03-04T01:14:10.560Z,4.30
2018-03-04T01:16:38.027Z,4.30
2018-03-04T01:19:05.488Z,4.40
2018-03-04T01:21:32.941Z,4.40
2018-03-04T01:24:00.397Z,4.40
2018-03-04T01:26:27.858Z,4.40
2018-03-04T01:28:55.317Z,4.50
2018-03-04T01:31:22.770Z,4.50
2018-03-04T01:33:50.225Z,4.50
2018-03-04T01:36:17.679Z,4.50
2018-03-04T01:38:45.128Z,4.50
2018-03-04T01:41:12.582Z,4.50
2018-03-04T01:43:40.045Z,4.40
2018-03-04T01:46:07.501Z,4.40
2018-03-04T01:48:34.965Z,4.40
2018-03-04T01:51:02.415Z,4.40
2018-03-04T01:53:29.885Z,4.30
2018-03-04T01:55:57.343Z,4.30
2018-03-04T01:58:24.801Z,4.20
2018-03-04T02:00:53.026Z,4.10
2018-03-04T02:03:21.261Z,4.10
2018-03-04T02:05:48.716Z,4.10
2018-03-04T02:08:16.178Z,4.10
2018-03-04T02:10:43.621Z,4.00
2018-03-04T02:13:11.081Z,3.90
2018-03-04T02:15:38.558Z,3.90
2018-03-04T02:18:05.985Z,3.80
2018-03-04T02:20:33.441Z,3.80
2018-03-04T02:23:00.902Z,3.80
2018-03-04T02:25:29.128Z,3.70
2018-03-04T02:27:57.385Z,3.60
2018-03-04T02:30:24.837Z,3.60
2018-03-04T02:32:52.293Z,3.60
2018-03-04T02:35:19.749Z,3.60
2018-03-04T02:37:47.199Z,3.60
2018-03-04T02:40:14.661Z,3.50
2018-03-04T02:42:42.114Z,3.50
2018-03-04T02:45:09.568Z,3.50
2018-03-04T02:47:37.029Z,3.50
2018-03-04T02:50:04.494Z,3.40
2018-03-04T02:52:31.943Z,3.40
2018-03-04T02:54:59.399Z,3.40
2018-03-04T02:57:26.855Z,3.40
2018-03-04T02:59:54.315Z,3.30
2018-03-04T03:02:21.762Z,3.30
2018-03-04T03:04:49.219Z,3.30
2018-03-04T03:07:16.679Z,3.30
2018-03-04T03:09:44.133Z,3.40
2018-03-04T03:12:11.586Z,3.40
2018-03-04T03:14:39.043Z,3.40
2018-03-04T03:17:06.493Z,3.40
2018-03-04T03:19:33.958Z,3.40
2018-03-04T03:22:01.414Z,3.40
2018-03-04T03:24:28.870Z,3.40
2018-03-04T03:26:56.325Z,3.40
2018-03-04T03:29:23.781Z,3.40
2018-03-04T03:31:51.233Z,3.30
2018-03-04T03:34:18.706Z,3.30
2018-03-04T03:36:46.156Z,3.30
2018-03-04T03:39:13.607Z,3.20
2018-03-04T03:41:41.063Z,3.20
2018-03-04T03:44:08.509Z,3.30
2018-03-04T03:46:35.968Z,3.20
2018-03-04T03:49:03.428Z,3.20
2018-03-04T03:51:30.879Z,3.20
2018-03-04T03:53:58.331Z,3.20
2018-03-04T03:56:25.790Z,3.10
2018-03-04T03:58:53.248Z,3.10
2018-03-04T04:01:20.727Z,3.10
2018-03-04T04:03:48.181Z,3.10
2018-03-04T04:06:15.642Z,3.10
2018-03-04T04:08:43.098Z,3.00
2018-03-04T04:11:10.553Z,3.00
2018-03-04T04:13:37.997Z,2.90
2018-03-04T04:16:05.456Z,2.90
2018-03-04T04:18:32.908Z,2.80
2018-03-04T04:21:00.368Z,2.80
2018-03-04T04:23:27.821Z,2.80
2018-03-04T04:25:55.276Z,2.80
2018-03-04T04:28:22.740Z,2.70
2018-03-04T04:30:50.195Z,2.70
2018-03-04T04:33:17.640Z,2.60
2018-03-04T04:35:45.108Z,2.70
2018-03-04T04:38:12.558Z,2.60
2018-03-04T04:40:40.030Z,2.60
2018-03-04T04:43:07.498Z,2.60
2018-03-04T04:45:34.941Z,2.50
2018-03-04T04:48:02.404Z,2.50
2018-03-04T04:50:29.849Z,2.50
2018-03-04T04:52:57.317Z,2.50
2018-03-04T04:55:24.770Z,2.50
2018-03-04T04:57:52.230Z,2.40
2018-03-04T05:00:19.678Z,2.40
2018-03-04T05:02:47.138Z,2.40
2018-03-04T05:05:14.582Z,2.40
2018-03-04T05:07:42.042Z,2.40
2018-03-04T05:10:09.493Z,2.40
2018-03-04T05:12:36.950Z,2.30
2018-03-04T05:15:04.410Z,2.30
2018-03-04T05:17:31.870Z,2.20
2018-03-04T05:19:59.327Z,2.20
2018-03-04T05:22:26.781Z,2.20
2018-03-04T05:24:54.237Z,2.10
2018-03-04T05:27:21.692Z,2.10
2018-03-04T05:29:49.149Z,2.10
2018-03-04T05:32:16.623Z,2.00
2018-03-04T05:34:44.073Z,2.00
2018-03-04T05:37:11.537Z,2.00
2018-03-04T05:39:38.985Z,1.90
2018-03-04T05:42:06.447Z,1.90
2018-03-04T05:44:33.904Z,1.90
2018-03-04T05:47:01.366Z,1.90
2018-03-04T05:49:28.821Z,1.90
2018-03-04T05:51:56.278Z,1.90
2018-03-04T05:54:23.744Z,1.90
2018-03-04T05:56:51.961Z,1.90
2018-03-04T05:59:19.421Z,1.90
2018-03-04T06:01:46.885Z,1.90
2018-03-04T06:04:14.350Z,1.90
2018-03-04T06:06:41.809Z,1.80
2018-03-04T06:09:09.283Z,1.80
2018-03-04T06:11:37.549Z,1.90
2018-03-04T06:14:05.018Z,1.90
2018-03-04T06:16:32.473Z,1.90
2018-03-04T06:18:59.930Z,1.90
2018-03-04T06:21:27.387Z,1.90
2018-03-04T06:23:54.841Z,1.90
2018-03-04T06:26:22.281Z,1.90
2018-03-04T06:28:49.749Z,1.90
2018-03-04T06:31:17.201Z,1.90
2018-03-04T06:33:44.662Z,1.90
2018-03-04T06:36:12.110Z,1.90
2018-03-04T06:38:39.575Z,1.90
2018-03-04T06:41:07.031Z,1.90
2018-03-04T06:43:34.492Z,1.90
2018-03-04T06:46:01.944Z,1.90
2018-03-04T06:48:29.401Z,2.00
2018-03-04T06:50:56.858Z,2.00
2018-03-04T06:53:24.333Z,2.00
2018-03-04T06:55:52.572Z,2.00
2018-03-04T06:58:20.030Z,2.00
2018-03-04T07:00:47.498Z,2.10
2018-03-04T07:03:14.953Z,2.20
2018-03-04T07:05:42.409Z,2.20
2018-03-04T07:08:09.858Z,2.30
2018-03-04T07:10:37.317Z,2.30
2018-03-04T07:13:04.770Z,2.30
2018-03-04T07:15:32.234Z,2.40
2018-03-04T07:17:59.681Z,2.40
2018-03-04T07:20:27.141Z,2.50
2018-03-04T07:22:54.592Z,2.50
2018-03-04T07:25:22.050Z,2.60
2018-03-04T07:27:49.507Z,2.60
2018-03-04T07:30:16.977Z,2.70
2018-03-04T07:32:44.426Z,2.80
2018-03-04T07:35:11.893Z,2.80
2018-03-04T07:37:39.338Z,2.90
2018-03-04T07:40:06.799Z,3.00
2018-03-04T07:42:34.249Z,3.00
2018-03-04T07:45:07.314Z,3.10
2018-03-04T07:47:34.762Z,3.20
2018-03-04T07:50:02.222Z,3.20
2018-03-04T07:52:29.713Z,3.30
2018-03-04T07:54:57.133Z,3.30
2018-03-04T07:57:24.589Z,3.40
2018-03-04T07:59:52.046Z,3.40
2018-03-04T08:02:19.501Z,3.50
2018-03-04T08:04:46.961Z,3.50
2018-03-04T08:07:14.417Z,3.60
2018-03-04T08:09:41.871Z,3.70
2018-03-04T08:12:09.326Z,3.70
2018-03-04T08:14:36.781Z,3.80
2018-03-04T08:17:04.246Z,3.80
2018-03-04T08:19:31.697Z,3.80
2018-03-04T08:21:59.154Z,3.90
2018-03-04T08:24:38.431Z,4.00
2018-03-04T08:27:17.655Z,4.00
2018-03-04T08:29:45.106Z,4.10
2018-03-04T08:32:12.560Z,4.20
2018-03-04T08:34:40.018Z,4.20
2018-03-04T08:37:07.484Z,4.30
2018-03-04T08:39:34.958Z,4.40
2018-03-04T08:42:02.397Z,4.50
2018-03-04T08:44:29.862Z,4.60
2018-03-04T08:46:57.317Z,4.60
2018-03-04T08:49:24.773Z,4.70
2018-03-04T08:51:52.242Z,4.80
2018-03-04T08:54:19.690Z,4.90
2018-03-04T08:56:47.156Z,5.00
2018-03-04T08:59:15.365Z,5.20
2018-03-04T09:01:42.817Z,5.20
2018-03-04T09:04:10.278Z,5.30
2018-03-04T09:06:37.738Z,5.30
2018-03-04T09:09:05.199Z,5.40
2018-03-04T09:11:33.429Z,5.50
2018-03-04T09:14:01.667Z,5.60
2018-03-04T09:16:29.113Z,5.50
2018-03-04T09:18:56.566Z,5.70
2018-03-04T09:21:24.026Z,5.70
2018-03-04T09:23:51.468Z,5.80
2018-03-04T09:26:18.924Z,5.90
2018-03-04T09:28:46.381Z,6.00
2018-03-04T09:31:13.841Z,6.00
2018-03-04T09:33:41.304Z,6.10
2018-03-04T09:36:08.750Z,6.10
2018-03-04T09:38:36.209Z,6.20
2018-03-04T09:41:03.661Z,6.30
2018-03-04T09:43:31.113Z,6.30
2018-03-04T09:45:58.568Z,6.40
2018-03-04T09:48:26.033Z,6.50
2018-03-04T09:50:53.481Z,6.60
2018-03-04T09:53:20.943Z,6.70
2018-03-04T09:55:48.389Z,6.80
2018-03-04T09:58:15.844Z,6.80
2018-03-04T10:00:43.306Z,6.90
2018-03-04T10:03:10.766Z,7.00
2018-03-04T10:05:38.220Z,7.00
2018-03-04T10:08:05.679Z,7.10
2018-03-04T10:10:33.130Z,7.10
2018-03-04T10:13:00.585Z,7.20
2018-03-04T10:15:28.048Z,7.20
2018-03-04T10:17:55.498Z,7.20
2018-03-04T10:20:22.962Z,7.20
2018-03-04T10:22:50.417Z,7.20
2018-03-04T10:25:17.865Z,7.20
2018-03-04T10:27:45.324Z,7.20
2018-03-04T10:30:12.787Z,7.30
2018-03-04T10:32:40.245Z,7.40
2018-03-04T10:35:07.705Z,7.40
2018-03-04T10:37:35.148Z,7.50
2018-03-04T10:40:02.610Z,7.60
2018-03-04T10:42:30.070Z,7.60
2018-03-04T10:44:57.524Z,7.70
2018-03-04T10:47:24.981Z,7.90
2018-03-04T10:49:52.438Z,8.00
2018-03-04T10:52:19.903Z,8.10
2018-03-04T10:54:47.358Z,8.20
2018-03-04T10:57:14.812Z,8.30
2018-03-04T10:59:42.281Z,8.30
2018-03-04T11:02:15.390Z,8.30
2018-03-04T11:04:42.841Z,8.30
2018-03-04T11:07:10.290Z,8.30
2018-03-04T11:09:37.754Z,8.30
2018-03-04T11:12:05.215Z,8.30
2018-03-04T11:14:32.660Z,8.40
2018-03-04T11:17:00.122Z,8.40
2018-03-04T11:19:27.552Z,8.60
2018-03-04T11:21:55.006Z,8.70
2018-03-04T11:24:22.465Z,8.80
2018-03-04T11:26:49.919Z,8.90
2018-03-04T11:29:17.361Z,9.10
2018-03-04T11:31:44.830Z,9.20
2018-03-04T11:34:12.270Z,9.40
2018-03-04T11:36:39.730Z,9.50
2018-03-04T11:39:07.176Z,9.70
2018-03-04T11:41:34.633Z,9.80
2018-03-04T11:44:02.841Z,9.90
2018-03-04T11:46:30.297Z,9.90
2018-03-04T11:48:57.748Z,10.00
2018-03-04T11:51:25.201Z,10.00
2018-03-04T11:53:52.757Z,10.00
2018-03-04T11:56:20.205Z,10.00
2018-03-04T11:58:47.653Z,9.90
2018-03-04T12:01:15.105Z,10.00
2018-03-04T12:03:42.568Z,10.10
2018-03-04T12:06:10.790Z,10.10
2018-03-04T12:08:38.242Z,10.10
2018-03-04T12:11:05.702Z,10.20
2018-03-04T12:13:33.157Z,10.20
2018-03-04T12:16:00.597Z,10.20
2018-03-04T12:18:28.061Z,10.30
2018-03-04T12:20:55.515Z,10.20
2018-03-04T12:23:23.213Z,10.30
2018-03-04T12:25:50.661Z,10.30
2018-03-04T12:28:18.121Z,10.30
2018-03-04T12:30:45.565Z,10.20
2018-03-04T12:33:13.021Z,10.30
2018-03-04T12:35:40.465Z,10.30
2018-03-04T12:38:07.925Z,10.40
2018-03-04T12:40:35.400Z,10.50
2018-03-04T12:43:02.861Z,10.60
2018-03-04T12:45:30.315Z,10.70
2018-03-04T12:47:57.778Z,10.80
2018-03-04T12:50:25.228Z,10.90
2018-03-04T12:52:52.685Z,11.00
2018-03-04T12:55:20.152Z,11.10
2018-03-04T12:57:47.601Z,11.30
2018-03-04T13:00:15.057Z,11.40
2018-03-04T13:02:42.554Z,11.50
2018-03-04T13:05:10.782Z,11.80
2018-03-04T13:07:38.252Z,11.70
2018-03-04T13:10:06.473Z,11.90
2018-03-04T13:12:33.938Z,11.90
2018-03-04T13:15:01.390Z,12.00
2018-03-04T13:17:28.851Z,12.00
2018-03-04T13:19:56.326Z,12.10
2018-03-04T13:22:23.835Z,12.20
2018-03-04T13:24:51.243Z,12.30
2018-03-04T13:27:18.702Z,12.40
2018-03-04T13:29:46.162Z,12.50
2018-03-04T13:32:13.617Z,12.60
2018-03-04T13:34:41.090Z,12.70
2018-03-04T13:37:09.315Z,12.70
2018-03-04T13:39:36.774Z,12.70
2018-03-04T13:42:04.217Z,12.70
2018-03-04T13:44:31.685Z,12.70
2018-03-04T13:46:59.142Z,12.70
2018-03-04T13:49:26.602Z,12.70
2018-03-04T13:51:54.056Z,12.70
2018-03-04T13:54:21.512Z,12.70
2018-03-04T13:56:48.964Z,12.70
2018-03-04T13:59:16.429Z,12.70
2018-03-04T14:01:43.894Z,12.70
2018-03-04T14:04:11.358Z,12.70
2018-03-04T14:06:38.827Z,12.70
2018-03-04T14:09:06.289Z,12.80
2018-03-04T14:11:33.738Z,12.90
2018-03-04T14:14:01.192Z,13.00
2018-03-04T14:16:28.699Z,13.10
2018-03-04T14:18:56.108Z,13.10
2018-03-04T14:21:23.577Z,13.10
2018-03-04T14:23:51.036Z,13.00
2018-03-04T14:26:18.478Z,12.90
2018-03-04T14:28:45.933Z,12.80
2018-03-04T14:31:13.390Z,12.70
2018-03-04T14:33:40.858Z,12.60
2018-03-04T14:36:08.305Z,12.50
2018-03-04T14:38:35.773Z,12.50
2018-03-04T14:41:03.225Z,12.60
2018-03-04T14:43:30.673Z,12.60
2018-03-04T14:45:58.129Z,12.70
2018-03-04T14:48:25.585Z,12.80
2018-03-04T14:50:53.041Z,12.90
2018-03-04T14:53:20.493Z,13.00
2018-03-04T14:55:47.949Z,13.10
2018-03-04T14:58:15.401Z,13.10
2018-03-04T15:00:42.857Z,13.00
2018-03-04T15:03:10.309Z,13.00
2018-03-04T15:05:37.766Z,13.00
2018-03-04T15:08:05.225Z,13.00
2018-03-04T15:10:32.712Z,12.90
2018-03-04T15:13:00.938Z,12.80
2018-03-04T15:15:28.394Z,12.70
2018-03-04T15:17:55.861Z,12.70
2018-03-04T15:20:23.317Z,12.80
2018-03-04T15:22:50.766Z,12.70
2018-03-04T15:25:18.225Z,12.70
2018-03-04T15:27:45.683Z,12.70
2018-03-04T15:30:13.154Z,12.70
2018-03-04T15:32:40.618Z,12.80
2018-03-04T15:35:08.086Z,12.80
2018-03-04T15:37:35.569Z,12.80
2018-03-04T15:40:03.773Z,12.80
2018-03-04T15:42:31.228Z,12.70
2018-03-04T15:44:58.676Z,12.60
2018-03-04T15:47:26.148Z,12.50
2018-03-04T15:49:53.601Z,12.40
2018-03-04T15:52:21.050Z,12.30
2018-03-04T15:54:48.504Z,12.20
2018-03-04T15:57:15.958Z,12.10
2018-03-04T15:59:43.434Z,12.10
2018-03-04T16:02:10.941Z,12.00
2018-03-04T16:04:38.357Z,11.90
2018-03-04T16:07:05.818Z,11.80
2018-03-04T16:09:33.279Z,11.70
2018-03-04T16:12:00.746Z,11.60
2018-03-04T16:14:28.223Z,11.50
2018-03-04T16:16:55.679Z,11.50
2018-03-04T16:19:23.909Z,11.30
2018-03-04T16:21:51.374Z,11.20
2018-03-04T16:24:18.829Z,11.20
2018-03-04T16:26:46.284Z,11.10
2018-03-04T16:29:13.738Z,11.10
2018-03-04T16:31:41.213Z,11.00
2018-03-04T16:34:08.669Z,10.90
2018-03-04T16:36:36.150Z,10.90
2018-03-04T16:39:04.357Z,10.80
2018-03-04T16:41:31.809Z,10.80
2018-03-04T16:43:59.268Z,10.80
2018-03-04T16:46:26.733Z,10.70
2018-03-04T16:48:54.210Z,10.70
2018-03-04T16:51:21.667Z,10.60
2018-03-04T16:53:49.138Z,10.50
2018-03-04T16:56:16.592Z,10.40
2018-03-04T16:58:44.061Z,10.40
2018-03-04T17:01:11.508Z,10.30
2018-03-04T17:03:38.969Z,10.20
2018-03-04T17:06:06.429Z,10.20
2018-03-04T17:08:33.902Z,10.10
2018-03-04T17:11:02.123Z,10.00
2018-03-04T17:13:29.587Z,10.00
2018-03-04T17:15:57.041Z,9.90
2018-03-04T17:18:24.513Z,9.90
2018-03-04T17:20:51.981Z,9.80
2018-03-04T17:23:19.436Z,9.80
2018-03-04T17:25:46.886Z,9.70
2018-03-04T17:28:14.346Z,9.80
2018-03-04T17:30:41.801Z,9.70
2018-03-04T17:33:09.258Z,9.70
2018-03-04T17:35:36.708Z,9.70
2018-03-04T17:38:04.169Z,9.60
2018-03-04T17:40:31.624Z,9.60
2018-03-04T17:42:59.106Z,9.60
2018-03-04T17:45:27.342Z,9.50
2018-03-04T17:47:54.793Z,9.50
2018-03-04T17:50:22.250Z,9.50
2018-03-04T17:52:49.714Z,9.50
2018-03-04T17:55:17.242Z,9.40
2018-03-04T17:57:44.683Z,9.40
2018-03-04T18:00:12.145Z,9.40
2018-03-04T18:02:39.595Z,9.40
2018-03-04T18:05:07.046Z,9.40
2018-03-04T18:07:35.429Z,9.30
2018-03-04T18:10:02.892Z,9.30
2018-03-04T18:12:30.358Z,9.30
2018-03-04T18:14:57.820Z,9.30
2018-03-04T18:17:25.270Z,9.20
2018-03-04T18:19:52.731Z,9.20
2018-03-04T18:22:20.186Z,9.20
2018-03-04T18:24:47.641Z,9.20
2018-03-04T18:27:15.108Z,9.20
2018-03-04T18:29:42.572Z,9.20
2018-03-04T18:32:10.069Z,9.20
2018-03-04T18:34:37.501Z,9.10
2018-03-04T18:37:04.953Z,9.10
2018-03-04T18:39:32.413Z,9.10
2018-03-04T18:41:59.873Z,9.10
2018-03-04T18:44:27.337Z,9.10
2018-03-04T18:46:54.809Z,9.10
2018-03-04T18:49:23.041Z,9.00
2018-03-04T18:51:50.497Z,9.00
2018-03-04T18:54:17.953Z,9.00
2018-03-04T18:56:45.433Z,9.00
2018-03-04T18:59:12.887Z,8.90
2018-03-04T19:01:40.344Z,8.90
2018-03-04T19:04:07.793Z,9.00
2018-03-04T19:06:35.260Z,9.00
2018-03-04T19:09:02.707Z,8.90
2018-03-04T19:11:30.171Z,8.90
2018-03-04T19:13:57.623Z,8.90
2018-03-04T19:16:25.092Z,8.90
2018-03-04T19:18:52.544Z,8.90
2018-03-04T19:21:20.001Z,8.90
2018-03-04T19:23:47.460Z,8.90
2018-03-04T19:26:14.916Z,8.90
2018-03-04T19:28:42.385Z,8.80
2018-03-04T19:31:10.622Z,8.80
2018-03-04T19:33:38.078Z,8.80
2018-03-04T19:36:05.537Z,8.80
2018-03-04T19:38:32.997Z,8.80
2018-03-04T19:41:00.458Z,8.80
2018-03-04T19:43:27.937Z,8.70
2018-03-04T19:45:55.379Z,8.70
2018-03-04T19:48:22.847Z,8.70
2018-03-04T19:50:50.301Z,8.70
2018-03-04T19:53:17.754Z,8.60
2018-03-04T19:55:45.214Z,8.60
2018-03-04T19:58:12.667Z,8.60
2018-03-04T20:00:40.153Z,8.50
2018-03-04T20:03:08.366Z,8.50
2018-03-04T20:05:35.841Z,8.50
2018-03-04T20:08:03.295Z,8.50
2018-03-04T20:10:30.748Z,8.50
2018-03-04T20:12:58.201Z,8.50
2018-03-04T20:15:25.656Z,8.40
2018-03-04T20:17:53.110Z,8.40
2018-03-04T20:20:20.563Z,8.40
2018-03-04T20:22:48.023Z,8.40
2018-03-04T20:25:15.566Z,8.40
2018-03-04T20:27:43.025Z,8.40
2018-03-04T20:30:10.473Z,8.40
2018-03-04T20:32:37.934Z,8.40
2018-03-04T20:35:05.387Z,8.40
2018-03-04T20:37:32.846Z,8.40
2018-03-04T20:40:00.294Z,8.40
2018-03-04T20:42:27.753Z,8.40
2018-03-04T20:44:55.193Z,8.40
2018-03-04T20:47:22.655Z,8.40
2018-03-04T20:49:50.108Z,8.40
2018-03-04T20:52:17.564Z,8.40
2018-03-04T20:54:45.022Z,8.40
2018-03-04T20:57:12.481Z,8.40
2018-03-04T20:59:39.941Z,8.30
2018-03-04T21:02:07.396Z,8.30
2018-03-04T21:04:34.863Z,8.30
2018-03-04T21:07:02.328Z,8.20
2018-03-04T21:09:29.772Z,8.20
2018-03-04T21:11:57.228Z,8.10
2018-03-04T21:14:24.678Z,8.10
2018-03-04T21:16:52.132Z,8.10
2018-03-04T21:19:19.593Z,8.10
2018-03-04T21:21:47.053Z,8.10
2018-03-04T21:24:14.558Z,8.10
2018-03-04T21:26:41.966Z,8.10
2018-03-04T21:29:09.421Z,8.10
2018-03-04T21:31:36.877Z,8.10
2018-03-04T21:34:04.333Z,8.10
2018-03-04T21:36:31.793Z,8.00
2018-03-04T21:38:59.246Z,8.00
2018-03-04T21:41:26.705Z,8.00
2018-03-04T21:43:54.175Z,8.00
2018-03-04T21:46:21.631Z,8.00
2018-03-04T21:48:49.101Z,8.00
2018-03-04T21:51:16.558Z,8.00
2018-03-04T21:53:44.013Z,8.00
2018-03-04T21:56:11.477Z,8.00
2018-03-04T21:58:38.938Z,7.90
2018-03-04T22:01:06.393Z,7.90
2018-03-04T22:03:33.864Z,7.90
2018-03-04T22:06:01.313Z,7.90
2018-03-04T22:08:28.777Z,7.90
2018-03-04T22:10:56.234Z,7.90
2018-03-04T22:13:23.698Z,7.80
2018-03-04T22:15:51.150Z,7.90
2018-03-04T22:18:18.606Z,7.80
2018-03-04T22:20:46.062Z,7.80
2018-03-04T22:23:13.522Z,7.80
2018-03-04T22:25:40.975Z,7.90
2018-03-04T22:28:08.429Z,7.90
2018-03-04T22:30:35.884Z,7.90
2018-03-04T22:33:03.342Z,7.90
2018-03-04T22:35:30.794Z,7.90
2018-03-04T22:37:58.249Z,7.90
2018-03-04T22:40:25.709Z,7.90
2018-03-04T22:42:53.162Z,7.90
2018-03-04T22:45:20.632Z,7.90
2018-03-04T22:47:48.085Z,7.90
2018-03-04T22:50:15.536Z,7.90
2018-03-04T22:52:43.003Z,7.90
2018-03-04T22:55:10.455Z,7.90
2018-03-04T22:57:37.909Z,7.80
2018-03-04T23:00:06.145Z,7.80
2018-03-04T23:02:33.622Z,7.80
2018-03-04T23:05:01.073Z,7.80
2018-03-04T23:07:28.530Z,7.80
2018-03-04T23:09:55.994Z,7.80
2018-03-04T23:12:23.441Z,7.90
2018-03-04T23:14:50.905Z,7.90
2018-03-04T23:17:18.366Z,8.00
2018-03-04T23:19:45.847Z,8.00
2018-03-04T23:22:13.298Z,8.00
2018-03-04T23:24:40.759Z,8.00
2018-03-04T23:27:08.198Z,8.10
2018-03-04T23:29:35.657Z,8.10
2018-03-04T23:32:03.111Z,8.10
2018-03-04T23:34:30.563Z,8.10
2018-03-04T23:36:58.014Z,8.20
2018-03-04T23:39:25.465Z,8.20
2018-03-04T23:41:52.910Z,8.10
2018-03-04T23:44:20.365Z,8.20
2018-03-04T23:46:47.805Z,8.10
2018-03-04T23:49:15.265Z,8.10
2018-03-04T23:51:42.700Z,8.10
2018-03-04T23:54:10.187Z,8.10
2018-03-04T23:56:38.366Z,8.10
2018-03-04T23:59:05.834Z,8.10
